Time;durP1;ratioP1;P1;durP2;ratioP2;P2;SDS_P1;SDS_P2;PMS_P1;PMS_P2;Temp;Humidity;BMP_temperature;BMP_pressure;BME280_temperature;BME280_humidity;BME280_pressure;Samples;Min_cycle;Max_cycle;Signal;HPM_P1;HPM_P2
2023/04/13 00:00:34;;;;;;;;;;;;;;;;;;4934989;29;19915;-77
2023/04/13 00:03:00;;;;;;;;;;;;;;;;;;4939822;29;20391;-77
2023/04/13 00:05:26;;;;;;;;;;;;;;;;;;4922736;29;19918;-78
2023/04/13 00:07:52;;;;;;;;;;;;;;;;;;4938377;29;19918;-77
2023/04/13 00:10:19;;;;;;;;;;;;;;;;;;4920691;29;20009;-77
2023/04/13 00:12:47;;;;;;;;;;;;;;;;;;4936260;29;19915;-77
2023/04/13 00:15:14;;;;;;;;;;;;;;;;;;4935360;29;19919;-77
2023/04/13 00:17:39;;;;;;;;;;;;;;;;;;4932167;29;20378;-78
2023/04/13 00:20:11;;;;;;;;;;;;;;;;;;4936296;29;20038;-78
2023/04/13 00:22:37;;;;;;;;;;;;;;;;;;4935621;29;20002;-78
2023/04/13 00:25:02;;;;;;;;;;;;;;;;;;4936503;29;20494;-78
2023/04/13 00:27:29;;;;;;;;;;;;;;;;;;4936222;29;19915;-78
2023/04/13 00:29:58;;;;;;;;;;;;;;;;;;4934684;29;19946;-78
2023/04/13 00:32:23;;;;;;;;;;;;;;;;;;4936220;29;19970;-78
2023/04/13 00:34:48;;;;;;;;;;;;;;;;;;4936574;29;20379;-78
2023/04/13 00:37:14;;;;;;;;;;;;;;;;;;4935977;29;19914;-78
2023/04/13 00:39:39;;;;;;;;;;;;;;;;;;4938086;29;19962;-78
2023/04/13 00:42:06;;;;;;;;;;;;;;;;;;4937147;29;19919;-78
2023/04/13 00:44:32;;;;;;;;;;;;;;;;;;4937417;29;19919;-78
2023/04/13 00:46:57;;;;;;;;;;;;;;;;;;4932687;29;19914;-78
2023/04/13 00:49:23;;;;;;;;;;;;;;;;;;4935775;29;19922;-78
2023/04/13 00:51:48;;;;;;;;;;;;;;;;;;4936428;29;20406;-77
2023/04/13 00:54:14;;;;;;;;;;;;;;;;;;4936809;29;20002;-78
2023/04/13 00:56:41;;;;;;;;;;;;;;;;;;4935732;29;19914;-78
2023/04/13 00:59:07;;;;;;;;;;;;;;;;;;4936246;29;19922;-78
2023/04/13 01:01:32;;;;;;;;;;;;;;;;;;4939030;29;20371;-78
2023/04/13 01:03:58;;;;;;;;;;;;;;;;;;4951430;29;19919;-78
2023/04/13 01:06:25;;;;;;;;;;;;;;;;;;4946170;28;19986;-77
2023/04/13 01:08:50;;;;;;;;;;;;;;;;;;4959942;29;19918;-78
2023/04/13 01:11:17;;;;;;;;;;;;;;;;;;4962069;29;19911;-78
2023/04/13 01:13:42;;;;;;;;;;;;;;;;;;4960173;29;19932;-78
2023/04/13 01:16:08;;;;;;;;;;;;;;;;;;4961692;29;19903;-78
2023/04/13 01:18:36;;;;;;;;;;;;;;;;;;4928221;29;19915;-78
2023/04/13 01:21:03;;;;;;;;;;;;;;;;;;4948412;29;19915;-78
2023/04/13 01:23:30;;;;;;;;;;;;;;;;;;4929765;29;20014;-77
2023/04/13 01:25:56;;;;;;;;;;;;;;;;;;4946524;29;19982;-77
2023/04/13 01:28:23;;;;;;;;;;;;;;;;;;4944827;29;19986;-78
2023/04/13 01:30:48;;;;;;;;;;;;;;;;;;4945896;29;20430;-78
2023/04/13 01:33:15;;;;;;;;;;;;;;;;;;4944543;29;19940;-78
2023/04/13 01:35:40;;;;;;;;;;;;;;;;;;4942406;29;19981;-78
2023/04/13 01:38:07;;;;;;;;;;;;;;;;;;4913993;29;19921;-78
2023/04/13 01:40:33;;;;;;;;;;;;;;;;;;4904658;29;20005;-78
2023/04/13 01:42:59;;;;;;;;;;;;;;;;;;4919862;29;20078;-78
2023/04/13 01:45:29;;;;;;;;;;;;;;;;;;4919183;29;19915;-78
2023/04/13 01:47:56;;;;;;;;;;;;;;;;;;4902949;29;19919;-78
2023/04/13 01:50:34;;;;;;;;;;;;;;;;;;4919789;29;19915;-78
2023/04/13 01:53:10;;;;;;;;;;;;;;;;;;4918330;29;19915;-78
2023/04/13 01:55:38;;;;;;;;;;;;;;;;;;4902457;29;19938;-78
2023/04/13 01:58:04;;;;;;;;;;;;;;;;;;4919565;29;20387;-78
2023/04/13 02:00:35;;;;;;;;;;;;;;;;;;4921949;29;19916;-78
2023/04/13 02:03:04;;;;;;;;;;;;;;;;;;4921510;29;19919;-78
2023/04/13 02:05:29;;;;;;;;;;;;;;;;;;4938411;29;20013;-78
2023/04/13 02:07:54;;;;;;;;;;;;;;;;;;4938320;29;19919;-78
2023/04/13 02:10:21;;;;;;;;;;;;;;;;;;4941668;29;19915;-77
2023/04/13 02:12:46;;;;;;;;;;;;;;;;;;4927287;29;20314;-77
2023/04/13 02:15:12;;;;;;;;;;;;;;;;;;4941108;29;19915;-78
2023/04/13 02:17:38;;;;;;;;;;;;;;;;;;4939689;29;20369;-78
2023/04/13 02:20:10;;;;;;;;;;;;;;;;;;4929103;29;20322;-78
2023/04/13 02:22:35;;;;;;;;;;;;;;;;;;4928175;29;19915;-78
2023/04/13 02:25:00;;;;;;;;;;;;;;;;;;4928027;29;20009;-78
2023/04/13 02:27:27;;;;;;;;;;;;;;;;;;4943985;29;19969;-78
2023/04/13 02:29:54;;;;;;;;;;;;;;;;;;4946602;29;19915;-78
2023/04/13 02:32:19;;;;;;;;;;;;;;;;;;4945564;29;19938;-77
2023/04/13 02:34:45;;;;;;;;;;;;;;;;;;4942509;29;19914;-79
2023/04/13 02:37:10;;;;;;;;;;;;;;;;;;4945686;29;19922;-79
2023/04/13 02:39:36;;;;;;;;;;;;;;;;;;4941321;29;19923;-78
2023/04/13 02:42:03;;;;;;;;;;;;;;;;;;4940479;29;19915;-78
2023/04/13 02:44:30;;;;;;;;;;;;;;;;;;4942117;29;19926;-78
2023/04/13 02:46:57;;;;;;;;;;;;;;;;;;4938129;29;19918;-78
2023/04/13 02:49:23;;;;;;;;;;;;;;;;;;4937490;29;19921;-78
2023/04/13 02:52:08;;;;;;;;;;;;;;;;;;4933190;29;19931;-78
2023/04/13 02:54:43;;;;;;;;;;;;;;;;;;4936238;29;19919;-78
2023/04/13 02:57:14;;;;;;;;;;;;;;;;;;4936291;29;19915;-78
2023/04/13 02:59:42;;;;;;;;;;;;;;;;;;4920673;29;19915;-78
2023/04/13 03:02:08;;;;;;;;;;;;;;;;;;4937337;29;19915;-79
2023/04/13 03:04:34;;;;;;;;;;;;;;;;;;4935857;29;19957;-78
2023/04/13 03:07:03;;;;;;;;;;;;;;;;;;4934941;29;19965;-78
2023/04/13 03:09:29;;;;;;;;;;;;;;;;;;4920240;29;20454;-79
2023/04/13 03:11:55;;;;;;;;;;;;;;;;;;4904740;29;19918;-78
2023/04/13 03:14:22;;;;;;;;;;;;;;;;;;4920777;29;19915;-78
2023/04/13 03:16:53;;;;;;;;;;;;;;;;;;4935660;29;19915;-78
2023/04/13 03:19:22;;;;;;;;;;;;;;;;;;4935908;29;19961;-77
2023/04/13 03:21:48;;;;;;;;;;;;;;;;;;4919863;29;20445;-78
2023/04/13 03:24:17;;;;;;;;;;;;;;;;;;4932110;29;19919;-79
2023/04/13 03:26:43;;;;;;;;;;;;;;;;;;4935080;29;20402;-77
2023/04/13 03:29:12;;;;;;;;;;;;;;;;;;4935306;29;20001;-78
2023/04/13 03:31:41;;;;;;;;;;;;;;;;;;4935639;29;20318;-78
2023/04/13 03:34:06;;;;;;;;;;;;;;;;;;4919529;29;19915;-78
2023/04/13 03:36:32;;;;;;;;;;;;;;;;;;4934946;29;20032;-78
2023/04/13 03:38:58;;;;;;;;;;;;;;;;;;4935198;29;20344;-78
2023/04/13 03:41:26;;;;;;;;;;;;;;;;;;4919433;29;19919;-78
2023/04/13 03:43:51;;;;;;;;;;;;;;;;;;4920164;29;19934;-78
2023/04/13 03:46:17;;;;;;;;;;;;;;;;;;4919058;29;20018;-78
2023/04/13 03:48:42;;;;;;;;;;;;;;;;;;4916953;29;19962;-79
2023/04/13 03:51:11;;;;;;;;;;;;;;;;;;4901918;29;19921;-79
2023/04/13 03:53:46;;;;;;;;;;;;;;;;;;4918395;29;19966;-78
2023/04/13 03:56:11;;;;;;;;;;;;;;;;;;4916459;29;19966;-78
2023/04/13 03:58:37;;;;;;;;;;;;;;;;;;4918244;29;19915;-77
2023/04/13 04:01:03;;;;;;;;;;;;;;;;;;4887470;29;20027;-78
2023/04/13 04:03:39;;;;;;;;;;;;;;;;;;4904981;29;19919;-77
2023/04/13 04:08:48;;;;;;;;;;;;;;;;;;4926129;29;19927;-86
2023/04/13 04:11:44;;;;;;;;;;;;;;;;;;4908607;29;19916;-87
2023/04/13 04:14:20;;;;;;;;;;;;;;;;;;4913696;29;19975;-85
2023/04/13 04:17:00;;;;;;;;;;;;;;;;;;4930578;29;19915;-87
2023/04/13 04:19:32;;;;;;;;;;;;;;;;;;4914990;29;19916;-86
2023/04/13 04:22:02;;;;;;;;;;;;;;;;;;4898035;29;19922;-87
2023/04/13 04:24:29;;;;;;;;;;;;;;;;;;4897645;29;19946;-84
2023/04/13 04:26:56;;;;;;;;;;;;;;;;;;4895878;29;19941;-83
2023/04/13 04:29:28;;;;;;;;;;;;;;;;;;4907313;29;20431;-80
2023/04/13 04:31:57;;;;;;;;;;;;;;;;;;4899538;29;19916;-80
2023/04/13 04:34:27;;;;;;;;;;;;;;;;;;4900312;29;19916;-84
2023/04/13 04:36:58;;;;;;;;;;;;;;;;;;4917377;29;19922;-84
2023/04/13 04:39:31;;;;;;;;;;;;;;;;;;4890048;29;19922;-85
2023/04/13 04:42:17;;;;;;;;;;;;;;;;;;4904621;29;19915;-86
2023/04/13 04:44:50;;;;;;;;;;;;;;;;;;4887463;29;19915;-88
2023/04/13 04:47:24;;;;;;;;;;;;;;;;;;4904611;29;19916;-82
2023/04/13 04:50:13;;;;;;;;;;;;;;;;;;4919108;29;19915;-86
2023/04/13 04:52:48;;;;;;;;;;;;;;;;;;4902020;29;19922;-85
2023/04/13 04:55:25;;;;;;;;;;;;;;;;;;4919096;29;19915;-88
2023/04/13 04:58:01;;;;;;;;;;;;;;;;;;4888653;29;19916;-87
2023/04/13 05:00:31;;;;;;;;;;;;;;;;;;4902061;29;19916;-83
2023/04/13 05:03:07;;;;;;;;;;;;;;;;;;4901307;29;19915;-87
2023/04/13 05:05:36;;;;;;;;;;;;;;;;;;4888340;29;19904;-84
2023/04/13 05:08:10;;;;;;;;;;;;;;;;;;4888416;29;19983;-86
2023/04/13 05:11:01;;;;;;;;;;;;;;;;;;4904336;29;19925;-86
2023/04/13 05:13:27;;;;;;;;;;;;;;;;;;4899600;29;19951;-82
2023/04/13 05:16:05;;;;;;;;;;;;;;;;;;4894742;29;20010;-85
2023/04/13 05:18:34;;;;;;;;;;;;;;;;;;4895007;29;19950;-84
2023/04/13 05:20:59;;;;;;;;;;;;;;;;;;4897513;29;19922;-83
2023/04/13 05:23:26;;;;;;;;;;;;;;;;;;4880108;29;19919;-85
2023/04/13 05:26:01;;;;;;;;;;;;;;;;;;4879309;29;19915;-86
2023/04/13 05:28:27;;;;;;;;;;;;;;;;;;4880019;29;19916;-84
2023/04/13 05:30:52;;;;;;;;;;;;;;;;;;4908056;29;19919;-86
2023/04/13 05:33:19;;;;;;;;;;;;;;;;;;4892077;29;19925;-87
2023/04/13 05:35:50;;;;;;;;;;;;;;;;;;4890621;29;19916;-84
2023/04/13 05:38:16;;;;;;;;;;;;;;;;;;4905981;29;19978;-87
2023/04/13 05:40:44;;;;;;;;;;;;;;;;;;4880073;29;20011;-84
2023/04/13 05:43:11;;;;;;;;;;;;;;;;;;4857640;29;19920;-81
2023/04/13 05:45:42;;;;;;;;;;;;;;;;;;4890326;29;19931;-85
2023/04/13 05:48:12;;;;;;;;;;;;;;;;;;4876124;29;19951;-87
2023/04/13 05:50:42;;;;;;;;;;;;;;;;;;4888709;29;19916;-86
2023/04/13 05:53:09;;;;;;;;;;;;;;;;;;4887368;29;19916;-82
2023/04/13 05:55:47;;;;;;;;;;;;;;;;;;4877422;29;19916;-88
2023/04/13 05:58:13;;;;;;;;;;;;;;;;;;4891536;29;20013;-86
2023/04/13 06:00:40;;;;;;;;;;;;;;;;;;4871446;29;19915;-81
2023/04/13 06:03:10;;;;;;;;;;;;;;;;;;4903250;29;19919;-83
2023/04/13 06:05:36;;;;;;;;;;;;;;;;;;4906700;29;19923;-86
2023/04/13 06:08:01;;;;;;;;;;;;;;;;;;4892083;29;19919;-87
2023/04/13 06:10:27;;;;;;;;;;;;;;;;;;4911934;29;19940;-83
2023/04/13 06:12:53;;;;;;;;;;;;;;;;;;4888312;29;19926;-83
2023/04/13 06:15:19;;;;;;;;;;;;;;;;;;4907214;29;20053;-81
2023/04/13 06:17:49;;;;;;;;;;;;;;;;;;4904538;29;19926;-82
2023/04/13 06:20:15;;;;;;;;;;;;;;;;;;4904429;29;19923;-81
2023/04/13 06:22:41;;;;;;;;;;;;;;;;;;4902675;29;20299;-81
2023/04/13 06:25:07;;;;;;;;;;;;;;;;;;4878466;29;19922;-83
2023/04/13 06:27:38;;;;;;;;;;;;;;;;;;4898110;29;19963;-83
2023/04/13 06:30:04;;;;;;;;;;;;;;;;;;4891441;29;19919;-82
2023/04/13 06:32:34;;;;;;;;;;;;;;;;;;4870553;29;19959;-87
2023/04/13 06:35:02;;;;;;;;;;;;;;;;;;4887205;29;20003;-83
2023/04/13 06:37:32;;;;;;;;;;;;;;;;;;4899941;29;19915;-84
2023/04/13 06:40:01;;;;;;;;;;;;;;;;;;4871673;29;20380;-85
2023/04/13 06:42:35;;;;;;;;;;;;;;;;;;4907094;29;19916;-85
2023/04/13 06:45:20;;;;;;;;;;;;;;;;;;4892910;29;20010;-85
2023/04/13 06:47:46;;;;;;;;;;;;;;;;;;4890055;29;19919;-84
2023/04/13 06:50:12;;;;;;;;;;;;;;;;;;4902278;29;19950;-85
2023/04/13 06:52:39;;;;;;;;;;;;;;;;;;4876208;29;20060;-87
2023/04/13 06:55:05;;;;;;;;;;;;;;;;;;4869294;29;20304;-84
2023/04/13 06:57:35;;;;;;;;;;;;;;;;;;4891152;29;20000;-84
2023/04/13 07:00:01;;;;;;;;;;;;;;;;;;4891560;29;20007;-86
2023/04/13 07:02:30;;;;;;;;;;;;;;;;;;4883437;29;19920;-87
2023/04/13 07:04:56;;;;;;;;;;;;;;;;;;4877849;29;19928;-87
2023/04/13 07:07:22;;;;;;;;;;;;;;;;;;4893613;29;19927;-88
2023/04/13 07:09:48;;;;;;;;;;;;;;;;;;4894490;29;19916;-86
2023/04/13 07:12:14;;;;;;;;;;;;;;;;;;4907270;29;19937;-84
2023/04/13 07:14:41;;;;;;;;;;;;;;;;;;4892873;29;19915;-84
2023/04/13 07:17:09;;;;;;;;;;;;;;;;;;4893522;29;19922;-84
2023/04/13 07:19:35;;;;;;;;;;;;;;;;;;4907927;29;19915;-87
2023/04/13 07:22:01;;;;;;;;;;;;;;;;;;4872177;29;19927;-88
2023/04/13 07:24:28;;;;;;;;;;;;;;;;;;4876744;29;19955;-86
2023/04/13 07:26:58;;;;;;;;;;;;;;;;;;4891175;29;19989;-85
2023/04/13 07:29:26;;;;;;;;;;;;;;;;;;4908194;29;19922;-83
2023/04/13 07:31:56;;;;;;;;;;;;;;;;;;4893668;29;19958;-83
2023/04/13 07:34:22;;;;;;;;;;;;;;;;;;4879782;29;19919;-82
2023/04/13 07:36:49;;;;;;;;;;;;;;;;;;4879956;29;19912;-85
2023/04/13 07:39:20;;;;;;;;;;;;;;;;;;4891413;29;20006;-84
2023/04/13 07:41:47;;;;;;;;;;;;;;;;;;4891448;29;19916;-90
2023/04/13 07:44:18;;;;;;;;;;;;;;;;;;4907532;29;19921;-88
2023/04/13 07:46:44;;;;;;;;;;;;;;;;;;4890709;29;20005;-86
2023/04/13 07:49:13;;;;;;;;;;;;;;;;;;4884158;29;19915;-87
2023/04/13 07:51:42;;;;;;;;;;;;;;;;;;4879552;29;19951;-88
2023/04/13 07:54:08;;;;;;;;;;;;;;;;;;4883637;29;19915;-84
2023/04/13 07:56:35;;;;;;;;;;;;;;;;;;4886173;29;19915;-82
2023/04/13 07:59:02;;;;;;;;;;;;;;;;;;4865441;29;19956;-83
2023/04/13 08:01:28;;;;;;;;;;;;;;;;;;4869256;29;19916;-86
2023/04/13 08:03:59;;;;;;;;;;;;;;;;;;4870138;29;19930;-87
2023/04/13 08:06:28;;;;;;;;;;;;;;;;;;4860232;29;19954;-88
2023/04/13 08:09:02;;;;;;;;;;;;;;;;;;4868630;29;19923;-89
2023/04/13 08:11:37;;;;;;;;;;;;;;;;;;4887830;29;19916;-84
2023/04/13 08:14:15;;;;;;;;;;;;;;;;;;4891146;29;19927;-80
2023/04/13 08:16:41;;;;;;;;;;;;;;;;;;4884734;29;19923;-83
2023/04/13 08:19:08;;;;;;;;;;;;;;;;;;4898550;29;19923;-79
2023/04/13 08:21:39;;;;;;;;;;;;;;;;;;4891980;29;19922;-81
2023/04/13 08:24:05;;;;;;;;;;;;;;;;;;4888037;29;19984;-80
2023/04/13 08:26:31;;;;;;;;;;;;;;;;;;4885244;29;20349;-83
2023/04/13 08:28:59;;;;;;;;;;;;;;;;;;4870218;29;19927;-80
2023/04/13 08:31:25;;;;;;;;;;;;;;;;;;4902245;29;19922;-83
2023/04/13 08:33:55;;;;;;;;;;;;;;;;;;4900434;29;19965;-82
2023/04/13 08:36:21;;;;;;;;;;;;;;;;;;4869781;29;20010;-81
2023/04/13 08:38:55;;;;;;;;;;;;;;;;;;4894019;29;19918;-83
2023/04/13 08:41:25;;;;;;;;;;;;;;;;;;4881244;29;19950;-82
2023/04/13 08:43:55;;;;;;;;;;;;;;;;;;4884785;29;19919;-84
2023/04/13 08:46:27;;;;;;;;;;;;;;;;;;4886962;29;20313;-84
2023/04/13 08:48:55;;;;;;;;;;;;;;;;;;4902069;29;19916;-82
2023/04/13 08:51:28;;;;;;;;;;;;;;;;;;4903451;29;19912;-82
2023/04/13 08:53:54;;;;;;;;;;;;;;;;;;4901782;29;19962;-91
2023/04/13 08:56:25;;;;;;;;;;;;;;;;;;4873969;29;19923;-83
2023/04/13 08:58:51;;;;;;;;;;;;;;;;;;4886629;29;19916;-83
2023/04/13 09:01:17;;;;;;;;;;;;;;;;;;4902672;29;19998;-82
2023/04/13 09:03:44;;;;;;;;;;;;;;;;;;4906404;29;19919;-81
2023/04/13 09:06:10;;;;;;;;;;;;;;;;;;4902408;29;19915;-82
2023/04/13 09:08:38;;;;;;;;;;;;;;;;;;4885741;29;20010;-82
2023/04/13 09:11:05;;;;;;;;;;;;;;;;;;4885370;29;20408;-83
2023/04/13 09:13:31;;;;;;;;;;;;;;;;;;4900189;29;19916;-87
2023/04/13 09:15:56;;;;;;;;;;;;;;;;;;4881991;29;19943;-83
2023/04/13 09:18:32;;;;;;;;;;;;;;;;;;4882534;29;20010;-81
2023/04/13 09:21:04;;;;;;;;;;;;;;;;;;4899739;29;19919;-87
2023/04/13 09:23:29;;;;;;;;;;;;;;;;;;4888710;29;19926;-87
2023/04/13 09:25:55;;;;;;;;;;;;;;;;;;4869610;29;19915;-87
2023/04/13 09:28:20;;;;;;;;;;;;;;;;;;4886247;29;19915;-86
2023/04/13 09:30:46;;;;;;;;;;;;;;;;;;4902090;29;20018;-87
2023/04/13 09:33:11;;;;;;;;;;;;;;;;;;4885840;29;20390;-87
2023/04/13 09:35:37;;;;;;;;;;;;;;;;;;4889366;29;19919;-84
2023/04/13 09:38:03;;;;;;;;;;;;;;;;;;4901830;29;19951;-83
2023/04/13 09:40:29;;;;;;;;;;;;;;;;;;4902771;29;19926;-92
2023/04/13 09:42:55;;;;;;;;;;;;;;;;;;4871860;29;19915;-94
2023/04/13 09:45:21;;;;;;;;;;;;;;;;;;4872184;29;19963;-90
2023/04/13 09:47:47;;;;;;;;;;;;;;;;;;4900953;29;20062;-90
2023/04/13 09:50:12;;;;;;;;;;;;;;;;;;4887760;29;19920;-88
2023/04/13 09:52:37;;;;;;;;;;;;;;;;;;4901041;29;20340;-86
2023/04/13 09:55:03;;;;;;;;;;;;;;;;;;4885242;29;19958;-85
2023/04/13 09:57:29;;;;;;;;;;;;;;;;;;4900712;29;19919;-85
2023/04/13 09:59:54;;;;;;;;;;;;;;;;;;4904848;29;19922;-85
2023/04/13 10:02:20;;;;;;;;;;;;;;;;;;4903630;29;19939;-84
2023/04/13 10:04:45;;;;;;;;;;;;;;;;;;4901214;29;19919;-85
2023/04/13 10:07:12;;;;;;;;;;;;;;;;;;4934861;23;19927;-82
2023/04/13 10:09:37;;;;;;;;;;;;;;;;;;4931351;29;19922;-82
2023/04/13 10:12:02;;;;;;;;;;;;;;;;;;4927573;29;19937;-82
2023/04/13 10:14:28;;;;;;;;;;;;;;;;;;4929830;29;19922;-82
2023/04/13 10:16:53;;;;;;;;;;;;;;;;;;4926317;29;19915;-80
2023/04/13 10:19:19;;;;;;;;;;;;;;;;;;4926940;29;19922;-81
2023/04/13 10:21:44;;;;;;;;;;;;;;;;;;4913100;29;19911;-82
2023/04/13 10:24:12;;;;;;;;;;;;;;;;;;4911405;29;19926;-82
2023/04/13 10:26:38;;;;;;;;;;;;;;;;;;4926416;29;19918;-86
2023/04/13 10:29:03;;;;;;;;;;;;;;;;;;4911764;29;19926;-81
2023/04/13 10:31:29;;;;;;;;;;;;;;;;;;4926347;29;19973;-83
2023/04/13 10:33:56;;;;;;;;;;;;;;;;;;4905863;29;19965;-82
2023/04/13 10:36:22;;;;;;;;;;;;;;;;;;4925292;29;19997;-85
2023/04/13 10:38:47;;;;;;;;;;;;;;;;;;4920776;29;19974;-83
2023/04/13 10:41:13;;;;;;;;;;;;;;;;;;4922277;29;19915;-82
2023/04/13 10:43:38;;;;;;;;;;;;;;;;;;4905285;29;19947;-82
2023/04/13 10:46:04;;;;;;;;;;;;;;;;;;4914910;29;19931;-81
2023/04/13 10:48:29;;;;;;;;;;;;;;;;;;4899472;29;19923;-81
2023/04/13 10:50:55;;;;;;;;;;;;;;;;;;4905395;29;19931;-81
2023/04/13 10:53:20;;;;;;;;;;;;;;;;;;4909075;29;19916;-80
2023/04/13 10:55:46;;;;;;;;;;;;;;;;;;4921641;29;19915;-81
2023/04/13 10:58:11;;;;;;;;;;;;;;;;;;4905091;29;20437;-81
2023/04/13 11:00:38;;;;;;;;;;;;;;;;;;4921726;29;19916;-81
2023/04/13 11:03:05;;;;;;;;;;;;;;;;;;4923519;29;19915;-81
2023/04/13 11:05:30;;;;;;;;;;;;;;;;;;4920378;29;19915;-81
2023/04/13 11:07:56;;;;;;;;;;;;;;;;;;4920360;29;19923;-81
2023/04/13 11:10:21;;;;;;;;;;;;;;;;;;4935351;29;19926;-80
2023/04/13 11:12:46;;;;;;;;;;;;;;;;;;4920496;29;19919;-81
2023/04/13 11:15:12;;;;;;;;;;;;;;;;;;4915869;29;19989;-84
2023/04/13 11:17:38;;;;;;;;;;;;;;;;;;4919477;29;19983;-81
2023/04/13 11:20:09;;;;;;;;;;;;;;;;;;4912488;29;19915;-84
2023/04/13 11:22:34;;;;;;;;;;;;;;;;;;4915556;29;19928;-85
2023/04/13 11:25:01;;;;;;;;;;;;;;;;;;4897870;29;19919;-82
2023/04/13 11:27:27;;;;;;;;;;;;;;;;;;4899903;29;20380;-83
2023/04/13 11:29:52;;;;;;;;;;;;;;;;;;4899444;29;19916;-83
2023/04/13 11:32:18;;;;;;;;;;;;;;;;;;4915216;29;19919;-82
2023/04/13 11:34:43;;;;;;;;;;;;;;;;;;4898514;29;19915;-83
2023/04/13 11:37:10;;;;;;;;;;;;;;;;;;4913987;29;20371;-82
2023/04/13 11:39:35;;;;;;;;;;;;;;;;;;4907317;29;19923;-82
2023/04/13 11:42:01;;;;;;;;;;;;;;;;;;4907115;29;20295;-85
2023/04/13 11:44:26;;;;;;;;;;;;;;;;;;4883891;29;19974;-86
2023/04/13 11:46:52;;;;;;;;;;;;;;;;;;4891521;29;19915;-83
2023/04/13 11:49:18;;;;;;;;;;;;;;;;;;4900109;29;19919;-85
2023/04/13 11:51:43;;;;;;;;;;;;;;;;;;4899157;29;19938;-83
2023/04/13 11:54:09;;;;;;;;;;;;;;;;;;4929449;29;19953;-84
2023/04/13 11:56:35;;;;;;;;;;;;;;;;;;4907576;29;19971;-86
2023/04/13 11:59:00;;;;;;;;;;;;;;;;;;4904382;29;20283;-84
2023/04/13 12:01:26;;;;;;;;;;;;;;;;;;4895040;29;19939;-82
2023/04/13 12:03:51;;;;;;;;;;;;;;;;;;4920394;29;20371;-81
2023/04/13 12:06:17;;;;;;;;;;;;;;;;;;4924538;29;20448;-82
2023/04/13 12:08:42;;;;;;;;;;;;;;;;;;4917738;29;19919;-84
2023/04/13 12:11:09;;;;;;;;;;;;;;;;;;4886166;29;19915;-83
2023/04/13 12:13:34;;;;;;;;;;;;;;;;;;4921235;29;19915;-82
2023/04/13 12:16:00;;;;;;;;;;;;;;;;;;4921315;29;20006;-84
2023/04/13 12:18:25;;;;;;;;;;;;;;;;;;4920696;29;19961;-85
2023/04/13 12:20:51;;;;;;;;;;;;;;;;;;4917334;29;19915;-83
2023/04/13 12:23:17;;;;;;;;;;;;;;;;;;4921098;29;19926;-82
2023/04/13 12:25:43;;;;;;;;;;;;;;;;;;4917321;29;20002;-87
2023/04/13 12:28:09;;;;;;;;;;;;;;;;;;4916623;29;20394;-83
2023/04/13 12:30:34;;;;;;;;;;;;;;;;;;4901740;29;19917;-83
2023/04/13 12:33:00;;;;;;;;;;;;;;;;;;4904799;29;19919;-89
2023/04/13 12:35:25;;;;;;;;;;;;;;;;;;4885971;29;20237;-85
2023/04/13 12:37:51;;;;;;;;;;;;;;;;;;4902512;29;19937;-85
2023/04/13 12:40:17;;;;;;;;;;;;;;;;;;4907832;29;19939;-83
2023/04/13 12:42:42;;;;;;;;;;;;;;;;;;4918547;29;19922;-84
2023/04/13 12:45:08;;;;;;;;;;;;;;;;;;4893734;29;19930;-84
2023/04/13 12:47:33;;;;;;;;;;;;;;;;;;4902098;29;19923;-86
2023/04/13 12:49:58;;;;;;;;;;;;;;;;;;4908291;29;20006;-86
2023/04/13 12:52:27;;;;;;;;;;;;;;;;;;4907115;29;20383;-87
2023/04/13 12:54:52;;;;;;;;;;;;;;;;;;4915996;29;19923;-85
2023/04/13 12:57:18;;;;;;;;;;;;;;;;;;4914560;29;20423;-83
2023/04/13 12:59:43;;;;;;;;;;;;;;;;;;4921098;29;19915;-86
2023/04/13 13:02:08;;;;;;;;;;;;;;;;;;4921094;29;19915;-86
2023/04/13 13:04:34;;;;;;;;;;;;;;;;;;4903648;29;19926;-86
2023/04/13 13:06:59;;;;;;;;;;;;;;;;;;4922162;29;19915;-76
2023/04/13 13:09:25;;;;;;;;;;;;;;;;;;4920068;29;19915;-77
2023/04/13 13:11:51;;;;;;;;;;;;;;;;;;4921228;29;19919;-80
2023/04/13 13:14:16;;;;;;;;;;;;;;;;;;4909888;29;19942;-77
2023/04/13 13:16:41;;;;;;;;;;;;;;;;;;4915621;29;19915;-79
2023/04/13 13:19:07;;;;;;;;;;;;;;;;;;4906764;29;19942;-78
2023/04/13 13:21:32;;;;;;;;;;;;;;;;;;4930064;29;19926;-77
2023/04/13 13:23:58;;;;;;;;;;;;;;;;;;4918504;29;19926;-78
2023/04/13 13:26:23;;;;;;;;;;;;;;;;;;4933670;29;19921;-81
2023/04/13 13:28:50;;;;;;;;;;;;;;;;;;4939179;29;20011;-81
2023/04/13 13:31:16;;;;;;;;;;;;;;;;;;4938763;29;19922;-80
2023/04/13 13:33:41;;;;;;;;;;;;;;;;;;4939437;29;19915;-81
2023/04/13 13:36:06;;;;;;;;;;;;;;;;;;4938967;29;19970;-81
2023/04/13 13:38:32;;;;;;;;;;;;;;;;;;4925224;29;20013;-80
2023/04/13 13:40:57;;;;;;;;;;;;;;;;;;4918984;29;19919;-81
2023/04/13 13:43:23;;;;;;;;;;;;;;;;;;4919938;29;19962;-79
2023/04/13 13:45:48;;;;;;;;;;;;;;;;;;4921221;29;19923;-81
2023/04/13 13:48:14;;;;;;;;;;;;;;;;;;4926984;29;20394;-81
2023/04/13 13:50:49;;;;;;;;;;;;;;;;;;4937743;29;22352;-80
2023/04/13 13:53:15;;;;;;;;;;;;;;;;;;4908221;29;20280;-80
2023/04/13 13:55:41;;;;;;;;;;;;;;;;;;4918712;29;20006;-81
2023/04/13 13:58:06;;;;;;;;;;;;;;;;;;4919844;29;20282;-84
2023/04/13 14:00:32;;;;;;;;;;;;;;;;;;4919765;29;19912;-85
2023/04/13 14:02:57;;;;;;;;;;;;;;;;;;4920212;29;20251;-83
2023/04/13 14:05:23;;;;;;;;;;;;;;;;;;4933230;29;20315;-84
2023/04/13 14:07:48;;;;;;;;;;;;;;;;;;4939875;29;20021;-85
2023/04/13 14:10:14;;;;;;;;;;;;;;;;;;4940784;29;19914;-85
2023/04/13 14:12:39;;;;;;;;;;;;;;;;;;4943872;29;20399;-83
2023/04/13 14:15:05;;;;;;;;;;;;;;;;;;4944551;29;19915;-84
2023/04/13 14:17:30;;;;;;;;;;;;;;;;;;4947926;29;19939;-83
2023/04/13 14:19:55;;;;;;;;;;;;;;;;;;4942912;29;19915;-88
2023/04/13 14:22:21;;;;;;;;;;;;;;;;;;4956919;29;19915;-83
2023/04/13 14:24:50;;;;;;;;;;;;;;;;;;4957941;29;19937;-83
2023/04/13 14:27:16;;;;;;;;;;;;;;;;;;4927987;29;19989;-84
2023/04/13 14:29:41;;;;;;;;;;;;;;;;;;4958203;29;19922;-83
2023/04/13 14:32:06;;;;;;;;;;;;;;;;;;4957750;29;19938;-84
2023/04/13 14:34:32;;;;;;;;;;;;;;;;;;4904362;29;19919;-84
2023/04/13 14:36:57;;;;;;;;;;;;;;;;;;4918750;29;19929;-82
2023/04/13 14:39:27;;;;;;;;;;;;;;;;;;4903943;29;19915;-84
2023/04/13 14:41:52;;;;;;;;;;;;;;;;;;4889686;29;19987;-84
2023/04/13 14:44:18;;;;;;;;;;;;;;;;;;4900132;29;19935;-82
2023/04/13 14:46:43;;;;;;;;;;;;;;;;;;4900470;29;19915;-85
2023/04/13 14:49:09;;;;;;;;;;;;;;;;;;4887556;29;20337;-86
2023/04/13 14:51:38;;;;;;;;;;;;;;;;;;4896027;29;19915;-86
2023/04/13 14:54:03;;;;;;;;;;;;;;;;;;4907327;29;19915;-86
2023/04/13 14:56:29;;;;;;;;;;;;;;;;;;4893516;29;19925;-87
2023/04/13 14:58:55;;;;;;;;;;;;;;;;;;4908230;29;20339;-86
2023/04/13 15:01:22;;;;;;;;;;;;;;;;;;4895209;29;19915;-87
2023/04/13 15:03:51;;;;;;;;;;;;;;;;;;4911814;29;19947;-87
2023/04/13 15:06:26;;;;;;;;;;;;;;;;;;4911521;29;19922;-87
2023/04/13 15:08:53;;;;;;;;;;;;;;;;;;4905277;29;19931;-81
2023/04/13 15:11:18;;;;;;;;;;;;;;;;;;4917763;29;19982;-82
2023/04/13 15:13:44;;;;;;;;;;;;;;;;;;4918374;29;20431;-83
2023/04/13 15:16:10;;;;;;;;;;;;;;;;;;4918237;29;19915;-79
2023/04/13 15:18:35;;;;;;;;;;;;;;;;;;4917457;29;19919;-80
2023/04/13 15:21:01;;;;;;;;;;;;;;;;;;4917880;29;19919;-79
2023/04/13 15:23:26;;;;;;;;;;;;;;;;;;4917413;29;19919;-81
2023/04/13 15:25:52;;;;;;;;;;;;;;;;;;4914906;29;20394;-81
2023/04/13 15:28:18;;;;;;;;;;;;;;;;;;4898988;29;19919;-81
2023/04/13 15:30:43;;;;;;;;;;;;;;;;;;4898570;29;19922;-82
2023/04/13 15:33:08;;;;;;;;;;;;;;;;;;4908090;29;20022;-81
2023/04/13 15:35:34;;;;;;;;;;;;;;;;;;4918190;29;19915;-80
2023/04/13 15:38:01;;;;;;;;;;;;;;;;;;4917750;29;19938;-79
2023/04/13 15:40:26;;;;;;;;;;;;;;;;;;4923838;29;20059;-82
2023/04/13 15:42:52;;;;;;;;;;;;;;;;;;4933548;29;19915;-85
2023/04/13 15:45:17;;;;;;;;;;;;;;;;;;4913145;29;20294;-85
2023/04/13 15:47:43;;;;;;;;;;;;;;;;;;4890596;29;19954;-81
2023/04/13 15:50:09;;;;;;;;;;;;;;;;;;4922452;29;20393;-81
2023/04/13 15:52:35;;;;;;;;;;;;;;;;;;4902608;29;19915;-82
2023/04/13 15:55:00;;;;;;;;;;;;;;;;;;4921109;29;20002;-82
2023/04/13 15:57:26;;;;;;;;;;;;;;;;;;4920932;29;19998;-80
2023/04/13 16:00:10;;;;;;;;;;;;;;;;;;4920354;29;20006;-81
2023/04/13 16:02:36;;;;;;;;;;;;;;;;;;4921474;29;19922;-81
2023/04/13 16:05:01;;;;;;;;;;;;;;;;;;4920160;29;19919;-81
2023/04/13 16:07:27;;;;;;;;;;;;;;;;;;4919427;29;19915;-82
2023/04/13 16:09:56;;;;;;;;;;;;;;;;;;4917360;29;20311;-83
2023/04/13 16:12:25;;;;;;;;;;;;;;;;;;4900909;29;19950;-82
2023/04/13 16:14:54;;;;;;;;;;;;;;;;;;4917485;29;19920;-84
2023/04/13 16:17:29;;;;;;;;;;;;;;;;;;4918209;29;20010;-84
2023/04/13 16:19:55;;;;;;;;;;;;;;;;;;4919558;29;20406;-81
2023/04/13 16:22:21;;;;;;;;;;;;;;;;;;4920442;29;19911;-81
2023/04/13 16:24:47;;;;;;;;;;;;;;;;;;4920874;29;19919;-80
2023/04/13 16:27:12;;;;;;;;;;;;;;;;;;4921762;29;19912;-82
2023/04/13 16:29:40;;;;;;;;;;;;;;;;;;4918904;29;20215;-83
2023/04/13 16:32:05;;;;;;;;;;;;;;;;;;4900135;29;19923;-83
2023/04/13 16:34:31;;;;;;;;;;;;;;;;;;4916933;29;20371;-81
2023/04/13 16:36:57;;;;;;;;;;;;;;;;;;4916008;29;19915;-82
2023/04/13 16:39:22;;;;;;;;;;;;;;;;;;4916682;29;19950;-82
2023/04/13 16:41:48;;;;;;;;;;;;;;;;;;4916229;29;19919;-81
2023/04/13 16:44:13;;;;;;;;;;;;;;;;;;4916024;29;20299;-82
2023/04/13 16:46:38;;;;;;;;;;;;;;;;;;4915429;29;19915;-82
2023/04/13 16:49:04;;;;;;;;;;;;;;;;;;4915766;29;19995;-81